createdAt,value
2022-08-17T00:02:26.182Z,19.72
2022-08-17T00:05:33.377Z,19.68
2022-08-17T00:08:38.048Z,19.62
2022-08-17T00:12:35.068Z,19.60
2022-08-17T00:15:10.458Z,19.56
2022-08-17T00:19:01.610Z,19.56
2022-08-17T00:22:32.060Z,19.53
2022-08-17T00:25:08.176Z,19.46
2022-08-17T00:28:12.454Z,19.46
2022-08-17T00:31:15.577Z,19.46
2022-08-17T00:34:19.102Z,19.46
2022-08-17T00:37:23.139Z,19.37
2022-08-17T00:40:25.927Z,19.33
2022-08-17T00:43:36.046Z,19.32
2022-08-17T00:46:42.662Z,19.31
2022-08-17T00:49:45.409Z,19.29
2022-08-17T00:52:55.608Z,19.28
2022-08-17T00:55:59.054Z,19.26
2022-08-17T00:59:04.566Z,19.22
2022-08-17T01:02:09.716Z,19.19
2022-08-17T01:05:18.547Z,19.15
2022-08-17T01:08:26.545Z,19.11
2022-08-17T01:11:31.837Z,19.07
2022-08-17T01:14:34.556Z,19.06
2022-08-17T01:17:37.382Z,19.04
2022-08-17T01:20:48.054Z,19.03
2022-08-17T01:23:52.853Z,18.98
2022-08-17T01:26:56.706Z,18.96
2022-08-17T01:30:04.001Z,18.96
2022-08-17T01:33:06.761Z,18.94
2022-08-17T01:36:10.130Z,18.92
2022-08-17T01:39:32.684Z,18.86
2022-08-17T01:42:41.560Z,18.83
2022-08-17T01:45:48.514Z,18.80
2022-08-17T01:49:08.556Z,18.78
2022-08-17T01:52:13.068Z,18.75
2022-08-17T01:55:27.091Z,18.65
2022-08-17T01:58:30.488Z,18.47
2022-08-17T02:01:34.925Z,18.41
2022-08-17T02:04:37.702Z,18.38
2022-08-17T02:07:59.955Z,18.38
2022-08-17T02:11:11.276Z,18.37
2022-08-17T02:14:15.204Z,18.38
2022-08-17T02:17:18.411Z,18.36
2022-08-17T02:20:41.579Z,18.38
2022-08-17T02:23:50.101Z,18.37
2022-08-17T02:26:54.225Z,18.38
2022-08-17T02:29:57.881Z,18.37
2022-08-17T02:33:04.147Z,18.34
2022-08-17T02:36:09.373Z,18.31
2022-08-17T02:39:13.354Z,18.28
2022-08-17T02:42:17.902Z,18.26
2022-08-17T02:45:24.129Z,18.18
2022-08-17T02:48:30.423Z,18.13
2022-08-17T02:51:35.350Z,18.09
2022-08-17T02:54:40.210Z,18.04
2022-08-17T02:57:47.038Z,18.01
2022-08-17T03:00:50.515Z,18.01
2022-08-17T03:03:53.269Z,17.99
2022-08-17T03:06:56.167Z,17.96
2022-08-17T03:09:59.784Z,17.95
2022-08-17T03:13:04.459Z,17.93
2022-08-17T03:16:09.102Z,17.93
2022-08-17T03:19:12.299Z,17.92
2022-08-17T03:22:35.458Z,17.91
2022-08-17T03:25:39.833Z,17.89
2022-08-17T03:28:47.480Z,17.91
2022-08-17T03:31:51.349Z,17.91
2022-08-17T03:34:59.910Z,17.89
2022-08-17T03:38:02.748Z,17.89
2022-08-17T03:41:07.581Z,17.92
2022-08-17T03:44:11.776Z,17.91
2022-08-17T03:47:32.334Z,17.89
2022-08-17T03:50:58.013Z,17.88
2022-08-17T03:54:18.465Z,17.82
2022-08-17T03:57:21.618Z,17.76
2022-08-17T04:00:27.730Z,17.72
2022-08-17T04:03:30.479Z,17.69
2022-08-17T04:06:33.182Z,17.69
2022-08-17T04:09:36.915Z,17.74
2022-08-17T04:12:46.013Z,17.79
2022-08-17T04:15:50.300Z,17.84
2022-08-17T04:18:54.322Z,17.86
2022-08-17T04:21:57.751Z,17.87
2022-08-17T04:25:01.465Z,17.93
2022-08-17T04:28:07.660Z,17.91
2022-08-17T04:31:45.646Z,17.73
2022-08-17T04:34:48.909Z,17.85
2022-08-17T04:37:52.509Z,17.94
2022-08-17T04:41:14.667Z,17.95
2022-08-17T04:44:28.320Z,17.92
2022-08-17T04:47:41.446Z,17.96
2022-08-17T04:50:48.130Z,17.97
2022-08-17T04:53:54.544Z,17.98
2022-08-17T04:56:57.795Z,18.02
2022-08-17T05:00:01.096Z,18.02
2022-08-17T05:03:07.721Z,18.15
2022-08-17T05:06:10.448Z,18.19
2022-08-17T05:09:13.814Z,18.22
2022-08-17T05:12:16.955Z,18.28
2022-08-17T05:15:20.127Z,18.26
2022-08-17T05:18:27.153Z,18.24
2022-08-17T05:21:30.698Z,18.25
2022-08-17T05:24:42.467Z,18.26
2022-08-17T05:27:52.369Z,18.39
2022-08-17T05:30:58.152Z,18.53
2022-08-17T05:34:02.290Z,18.79
2022-08-17T05:37:05.246Z,19.13
2022-08-17T05:40:09.927Z,19.51
2022-08-17T05:43:15.632Z,19.98
2022-08-17T05:46:24.037Z,20.26
2022-08-17T05:49:30.555Z,20.35
2022-08-17T05:52:41.339Z,20.25
2022-08-17T05:55:53.166Z,20.01
2022-08-17T05:59:03.619Z,20.22
2022-08-17T06:02:17.158Z,21.10
2022-08-17T06:05:50.434Z,21.83
2022-08-17T06:09:03.113Z,22.46
2022-08-17T06:12:22.608Z,22.90
2022-08-17T06:15:32.171Z,23.11
2022-08-17T06:18:42.357Z,23.33
2022-08-17T06:21:50.376Z,23.56
2022-08-17T06:24:57.558Z,23.72
2022-08-17T06:28:06.083Z,24.02
2022-08-17T06:31:16.638Z,24.46
2022-08-17T06:34:22.047Z,24.83
2022-08-17T06:37:52.511Z,25.23
2022-08-17T06:41:05.406Z,25.79
2022-08-17T06:44:43.312Z,25.23
2022-08-17T06:47:47.407Z,24.62
2022-08-17T06:50:54.609Z,24.41
2022-08-17T06:54:06.477Z,24.48
2022-08-17T06:57:19.046Z,24.54
2022-08-17T07:00:24.406Z,24.12
2022-08-17T07:03:35.760Z,23.67
2022-08-17T07:06:44.018Z,23.40
2022-08-17T07:09:48.171Z,23.28
2022-08-17T07:12:55.561Z,23.28
2022-08-17T07:16:07.726Z,23.33
2022-08-17T07:19:11.280Z,23.57
2022-08-17T07:22:24.141Z,24.15
2022-08-17T07:25:30.658Z,24.70
2022-08-17T07:28:34.754Z,25.19
2022-08-17T07:31:37.796Z,25.67
2022-08-17T07:35:11.131Z,25.93
2022-08-17T07:38:25.147Z,26.03
2022-08-17T07:41:53.505Z,26.14
2022-08-17T07:45:24.199Z,26.32
2022-08-17T07:48:27.255Z,25.82
2022-08-17T07:51:33.828Z,25.46
2022-08-17T07:54:39.126Z,25.38
2022-08-17T07:57:43.303Z,25.22
2022-08-17T08:00:46.802Z,24.98
2022-08-17T08:03:52.400Z,25.04
2022-08-17T08:06:59.546Z,25.10
2022-08-17T08:10:09.443Z,25.20
2022-08-17T08:13:22.669Z,25.42
2022-08-17T08:16:29.272Z,25.33
2022-08-17T08:19:33.076Z,25.28
2022-08-17T08:22:46.665Z,25.28
2022-08-17T08:26:00.504Z,25.31
2022-08-17T08:29:14.165Z,25.42
2022-08-17T08:32:21.166Z,25.44
2022-08-17T08:35:32.430Z,25.51
2022-08-17T08:38:43.631Z,25.70
2022-08-17T08:41:56.596Z,25.79
2022-08-17T08:45:09.792Z,25.95
2022-08-17T08:48:53.067Z,25.93
2022-08-17T08:51:55.462Z,25.88
2022-08-17T08:55:07.756Z,26.06
2022-08-17T08:58:31.313Z,26.29
2022-08-17T09:01:59.906Z,26.46
2022-08-17T09:05:15.888Z,26.55
2022-08-17T09:08:27.947Z,26.68
2022-08-17T09:12:01.952Z,26.79
2022-08-17T09:15:12.358Z,26.94
2022-08-17T09:19:00.150Z,27.13
2022-08-17T09:21:53.430Z,27.29
2022-08-17T09:25:03.960Z,27.46
2022-08-17T09:28:09.074Z,27.56
2022-08-17T09:31:18.063Z,27.62
2022-08-17T09:34:33.239Z,27.59
2022-08-17T09:37:41.034Z,27.53
2022-08-17T09:40:52.534Z,27.39
2022-08-17T09:44:02.316Z,27.19
2022-08-17T09:47:11.005Z,26.99
2022-08-17T09:51:03.791Z,26.84
2022-08-17T09:53:45.004Z,26.71
2022-08-17T09:57:11.719Z,26.56
2022-08-17T10:00:25.389Z,26.34
2022-08-17T10:03:42.044Z,26.25
2022-08-17T10:06:53.349Z,26.09
2022-08-17T10:10:04.451Z,25.83
2022-08-17T10:13:18.736Z,25.69
2022-08-17T10:16:27.385Z,25.58
2022-08-17T10:19:36.918Z,25.50
2022-08-17T10:23:06.063Z,25.54
2022-08-17T10:26:14.696Z,25.63
2022-08-17T10:29:23.875Z,25.72
2022-08-17T10:32:33.837Z,25.79
2022-08-17T10:35:45.424Z,25.81
2022-08-17T10:38:59.641Z,25.43
2022-08-17T10:42:30.783Z,25.22
2022-08-17T10:45:38.836Z,25.19
2022-08-17T10:48:42.715Z,25.18
2022-08-17T10:51:54.856Z,25.26
2022-08-17T10:55:16.316Z,25.30
2022-08-17T10:58:24.455Z,25.34
2022-08-17T11:02:05.258Z,25.43
2022-08-17T11:05:20.613Z,25.32
2022-08-17T11:08:50.778Z,25.21
2022-08-17T11:12:09.625Z,25.03
2022-08-17T11:15:25.740Z,25.02
2022-08-17T11:18:44.736Z,25.03
2022-08-17T11:22:07.920Z,24.93
2022-08-17T11:25:16.261Z,24.87
2022-08-17T11:28:24.727Z,24.78
2022-08-17T11:31:38.403Z,24.76
2022-08-17T11:34:44.571Z,24.71
2022-08-17T11:37:58.994Z,24.69
2022-08-17T11:41:22.319Z,24.68
2022-08-17T11:44:38.528Z,24.72
2022-08-17T11:48:27.247Z,24.70
2022-08-17T11:52:04.563Z,24.60
2022-08-17T11:55:34.175Z,24.52
2022-08-17T11:58:42.130Z,24.86
2022-08-17T12:01:57.127Z,25.00
2022-08-17T12:05:27.366Z,25.08
2022-08-17T12:08:32.620Z,25.14
2022-08-17T12:11:55.623Z,25.22
2022-08-17T12:15:11.124Z,25.34
2022-08-17T12:18:21.921Z,25.64
2022-08-17T12:21:38.669Z,25.84
2022-08-17T12:24:55.301Z,26.14
2022-08-17T12:28:04.609Z,26.52
2022-08-17T12:31:16.410Z,26.81
2022-08-17T12:34:22.945Z,26.98
2022-08-17T12:37:29.842Z,27.18
2022-08-17T12:40:33.953Z,27.30
2022-08-17T12:43:36.677Z,27.41
2022-08-17T12:46:52.525Z,27.47
2022-08-17T12:50:28.319Z,27.66
2022-08-17T12:53:35.158Z,27.88
2022-08-17T12:56:38.125Z,28.05
2022-08-17T12:59:43.402Z,28.00
2022-08-17T13:02:50.269Z,27.89
2022-08-17T13:06:02.736Z,27.77
2022-08-17T13:09:14.266Z,27.87
2022-08-17T13:12:28.291Z,27.98
2022-08-17T13:15:36.165Z,28.05
2022-08-17T13:18:43.024Z,28.05
2022-08-17T13:21:49.064Z,28.07
2022-08-17T13:24:55.433Z,28.00
2022-08-17T13:27:58.817Z,27.96
2022-08-17T13:31:32.952Z,27.89
2022-08-17T13:34:59.588Z,27.73
2022-08-17T13:38:10.282Z,27.67
2022-08-17T13:41:33.594Z,27.53
2022-08-17T13:44:39.941Z,27.52
2022-08-17T13:47:43.432Z,27.53
2022-08-17T13:50:49.670Z,27.54
2022-08-17T13:53:57.839Z,27.55
2022-08-17T13:57:03.727Z,27.73
2022-08-17T14:00:17.143Z,27.75
2022-08-17T14:03:20.705Z,27.82
2022-08-17T14:06:51.630Z,27.85
2022-08-17T14:09:54.258Z,28.00
2022-08-17T14:12:57.812Z,28.02
2022-08-17T14:16:02.443Z,28.21
2022-08-17T14:19:05.935Z,28.34
2022-08-17T14:22:15.286Z,28.31
2022-08-17T14:25:23.183Z,28.33
2022-08-17T14:28:26.452Z,28.43
2022-08-17T14:31:35.370Z,28.49
2022-08-17T14:34:40.042Z,28.55
2022-08-17T14:37:44.943Z,28.53
2022-08-17T14:40:49.854Z,28.63
2022-08-17T14:43:53.611Z,28.64
2022-08-17T14:46:56.306Z,28.66
2022-08-17T14:53:23.378Z,28.65
2022-08-17T14:56:27.835Z,28.59
2022-08-17T14:59:36.770Z,28.44
2022-08-17T15:02:54.151Z,28.36
2022-08-17T15:05:56.866Z,28.46
2022-08-17T15:08:59.615Z,28.56
2022-08-17T15:12:06.456Z,28.64
2022-08-17T15:15:11.307Z,28.66
2022-08-17T15:18:14.087Z,28.66
2022-08-17T15:21:18.976Z,28.59
2022-08-17T15:24:21.874Z,28.60
2022-08-17T15:27:32.481Z,28.71
2022-08-17T15:30:35.995Z,28.69
2022-08-17T15:33:38.775Z,28.63
2022-08-17T15:36:45.483Z,28.57
2022-08-17T15:39:52.656Z,28.48
2022-08-17T15:42:57.866Z,28.40
2022-08-17T15:46:02.829Z,28.27
2022-08-17T15:49:05.603Z,28.22
2022-08-17T15:52:17.494Z,28.17
2022-08-17T15:55:24.182Z,28.22
2022-08-17T15:58:33.340Z,28.27
2022-08-17T16:03:01.742Z,28.24
2022-08-17T16:05:03.970Z,28.14
2022-08-17T16:08:12.594Z,28.04
2022-08-17T16:11:19.569Z,28.00
2022-08-17T16:14:24.159Z,27.89
2022-08-17T16:17:39.681Z,27.83
2022-08-17T16:20:43.514Z,27.84
2022-08-17T16:23:46.697Z,27.79
2022-08-17T16:26:49.415Z,27.76
2022-08-17T16:29:55.481Z,27.65
2022-08-17T16:33:00.406Z,27.57
2022-08-17T16:36:05.470Z,27.47
2022-08-17T16:39:08.441Z,27.43
2022-08-17T16:42:24.492Z,27.25
2022-08-17T16:45:36.975Z,27.27
2022-08-17T16:48:39.854Z,27.25
2022-08-17T16:51:42.702Z,27.20
2022-08-17T16:54:46.867Z,27.15
2022-08-17T16:57:50.575Z,27.11
2022-08-17T17:01:00.021Z,27.08
2022-08-17T17:04:06.048Z,27.06
2022-08-17T17:07:21.891Z,27.03
2022-08-17T17:10:29.891Z,26.96
2022-08-17T17:13:38.422Z,26.87
2022-08-17T17:16:46.292Z,26.75
2022-08-17T17:19:55.824Z,26.73
2022-08-17T17:23:05.021Z,26.68
2022-08-17T17:26:24.990Z,26.59
2022-08-17T17:29:47.134Z,26.52
2022-08-17T17:32:56.905Z,26.43
2022-08-17T17:36:02.206Z,26.36
2022-08-17T17:39:09.937Z,26.26
2022-08-17T17:42:16.709Z,26.14
2022-08-17T17:45:26.319Z,26.12
2022-08-17T17:48:30.756Z,26.08
2022-08-17T17:52:07.744Z,26.01
2022-08-17T17:55:19.330Z,25.88
2022-08-17T17:58:37.704Z,25.80
2022-08-17T18:01:47.812Z,25.72
2022-08-17T18:05:01.950Z,25.57
2022-08-17T18:08:14.863Z,25.48
2022-08-17T18:11:43.240Z,25.35
2022-08-17T18:15:06.405Z,25.20
2022-08-17T18:18:37.502Z,25.18
2022-08-17T18:21:44.623Z,24.98
2022-08-17T18:24:54.009Z,24.99
2022-08-17T18:27:56.796Z,24.87
2022-08-17T18:31:13.089Z,24.77
2022-08-17T18:34:45.846Z,24.71
2022-08-17T18:37:50.221Z,24.56
2022-08-17T18:41:02.947Z,24.62
2022-08-17T18:44:24.816Z,24.57
2022-08-17T18:47:30.486Z,24.50
2022-08-17T18:50:39.565Z,24.44
2022-08-17T18:53:43.650Z,24.38
2022-08-17T18:56:51.939Z,24.32
2022-08-17T18:59:54.941Z,24.27
2022-08-17T19:03:03.100Z,24.18
2022-08-17T19:06:22.798Z,24.07
2022-08-17T19:09:35.195Z,24.00
2022-08-17T19:12:43.107Z,23.94
2022-08-17T19:16:07.758Z,23.92
2022-08-17T19:19:20.628Z,23.88
2022-08-17T19:22:28.479Z,23.83
2022-08-17T19:25:37.243Z,23.57
2022-08-17T19:28:48.530Z,23.70
2022-08-17T19:31:55.503Z,23.59
2022-08-17T19:35:03.036Z,23.53
2022-08-17T19:38:12.806Z,23.45
2022-08-17T19:41:25.663Z,23.37
2022-08-17T19:44:50.461Z,23.29
2022-08-17T19:48:05.108Z,23.26
2022-08-17T19:51:14.723Z,23.24
2022-08-17T19:54:26.807Z,23.20
2022-08-17T19:57:42.388Z,23.15
2022-08-17T20:00:51.486Z,23.14
2022-08-17T20:03:59.177Z,23.12
2022-08-17T20:07:07.013Z,23.05
2022-08-17T20:10:19.779Z,23.05
2022-08-17T20:13:36.360Z,22.96
2022-08-17T20:16:39.224Z,22.78
2022-08-17T20:19:52.050Z,22.86
2022-08-17T20:23:03.794Z,22.80
2022-08-17T20:26:19.161Z,22.55
2022-08-17T20:29:37.013Z,22.69
2022-08-17T20:32:53.075Z,22.59
2022-08-17T20:36:04.719Z,22.57
2022-08-17T20:39:31.242Z,22.55
2022-08-17T20:42:38.840Z,22.55
2022-08-17T20:46:22.698Z,22.46
2022-08-17T20:49:29.927Z,22.45
2022-08-17T20:52:46.652Z,22.40
2022-08-17T20:55:55.545Z,22.33
2022-08-17T20:59:00.615Z,22.28
2022-08-17T21:02:18.471Z,22.23
2022-08-17T21:05:34.482Z,22.18
2022-08-17T21:08:45.692Z,22.12
2022-08-17T21:12:04.119Z,22.05
2022-08-17T21:15:13.689Z,22.01
2022-08-17T21:18:29.655Z,21.97
2022-08-17T21:21:46.591Z,21.84
2022-08-17T21:24:58.965Z,21.78
2022-08-17T21:28:13.335Z,21.68
2022-08-17T21:31:34.435Z,21.66
2022-08-17T21:34:42.431Z,21.83
2022-08-17T21:37:46.971Z,21.83
2022-08-17T21:40:52.700Z,21.81
2022-08-17T21:44:03.081Z,21.80
2022-08-17T21:47:21.511Z,21.76
2022-08-17T21:50:26.447Z,21.73
2022-08-17T21:53:39.541Z,21.67
2022-08-17T21:56:47.057Z,21.55
2022-08-17T21:59:54.530Z,21.58
2022-08-17T22:03:01.094Z,21.53
2022-08-17T22:06:23.980Z,21.49
2022-08-17T22:09:29.999Z,21.49
2022-08-17T22:12:35.090Z,21.45
2022-08-17T22:15:39.938Z,21.42
2022-08-17T22:18:44.722Z,21.39
2022-08-17T22:21:48.808Z,21.35
2022-08-17T22:24:57.208Z,21.26
2022-08-17T22:28:02.581Z,21.17
2022-08-17T22:31:06.700Z,21.10
2022-08-17T22:34:14.871Z,20.99
2022-08-17T22:37:28.950Z,20.97
2022-08-17T22:40:34.974Z,20.95
2022-08-17T22:43:41.522Z,20.74
2022-08-17T22:46:55.490Z,20.86
2022-08-17T22:50:01.234Z,20.82
2022-08-17T22:53:33.883Z,20.72
2022-08-17T22:56:55.616Z,20.68
2022-08-17T22:59:58.952Z,20.62
2022-08-17T23:03:09.175Z,20.58
2022-08-17T23:06:12.651Z,20.57
2022-08-17T23:09:16.972Z,20.56
2022-08-17T23:12:26.393Z,20.54
2022-08-17T23:15:34.230Z,20.53
2022-08-17T23:18:37.487Z,20.46
2022-08-17T23:21:40.704Z,20.45
2022-08-17T23:24:49.266Z,20.39
2022-08-17T23:27:52.173Z,20.36
2022-08-17T23:30:55.168Z,20.27
2022-08-17T23:33:59.183Z,20.36
2022-08-17T23:37:02.517Z,20.36
2022-08-17T23:40:08.423Z,20.33
2022-08-17T23:43:24.287Z,20.33
2022-08-17T23:46:28.224Z,20.36
2022-08-17T23:49:31.434Z,20.40
2022-08-17T23:52:36.869Z,20.45
2022-08-17T23:55:41.007Z,20.50
2022-08-17T23:58:44.889Z,20.54
